FBJ weather

Familia Baldenebro Jaimes Airport
Ciudad Obregon, Sonora, Mexico

Public forecast

Using degrees Celsius for public forecast. Weather courtesy of forecast.io.

Closest aviation weather report (METAR) to Familia Baldenebro Jaimes Airport

Report is more than 6 hours old.

Closest report is Ciudad Obregón International Airport, 5.7 nm (10.5 km) E. Retrieved 2019/12/16 01:40 UTC (8 hours ago):

MMCN 160140Z 22003KT 10SM SKC 19/16 A2990

Closest aviation forecast (TAF) to Familia Baldenebro Jaimes Airport

Closest forecast is Ciudad Obregón International Airport, 5.7 nm (10.5 km) E. Retrieved 2019/12/16 06:27 UTC (4 hours ago):

TAF TAF MMCN 160423Z 1606/1706 00000KT P6SM SKC TEMPO 1611/1615 3SM BR HZ SCT015 FM161800 34010KT P6SM SCT030 SCT250 FM170500 00000KT P6SM SKC